sensor_id;sensor_type;location;lat;lon;timestamp;pressure;altitude;pressure_sealevel;temperature;humidity
81931;BME280;71395;43.488;1.472;2024-03-17T00:00:14;100148.63;;;11.97;72.89
81931;BME280;71395;43.488;1.472;2024-03-17T00:02:41;100152.16;;;12.08;72.46
81931;BME280;71395;43.488;1.472;2024-03-17T00:05:07;100142.44;;;11.97;73.35
81931;BME280;71395;43.488;1.472;2024-03-17T00:07:33;100119.31;;;11.85;72.55
81931;BME280;71395;43.488;1.472;2024-03-17T00:09:59;100139.75;;;11.97;72.89
81931;BME280;71395;43.488;1.472;2024-03-17T00:12:24;100146.22;;;12.01;73.00
81931;BME280;71395;43.488;1.472;2024-03-17T00:14:50;100151.63;;;12.06;72.58
81931;BME280;71395;43.488;1.472;2024-03-17T00:17:15;100160.22;;;12.08;73.24
81931;BME280;71395;43.488;1.472;2024-03-17T00:19:41;100143.03;;;12.04;73.17
81931;BME280;71395;43.488;1.472;2024-03-17T00:22:07;100122.56;;;11.98;72.86
81931;BME280;71395;43.488;1.472;2024-03-17T00:24:35;100125.53;;;12.01;73.08
81931;BME280;71395;43.488;1.472;2024-03-17T00:27:01;100116.16;;;11.99;73.13
81931;BME280;71395;43.488;1.472;2024-03-17T00:29:27;100095.66;;;11.87;72.79
81931;BME280;71395;43.488;1.472;2024-03-17T00:31:53;100118.28;;;12.02;72.83
81931;BME280;71395;43.488;1.472;2024-03-17T00:34:19;100129.31;;;12.05;72.68
81931;BME280;71395;43.488;1.472;2024-03-17T00:36:45;100107.50;;;11.92;72.93
81931;BME280;71395;43.488;1.472;2024-03-17T00:39:11;100088.91;;;11.80;73.24
81931;BME280;71395;43.488;1.472;2024-03-17T00:41:37;100102.38;;;11.85;72.89
81931;BME280;71395;43.488;1.472;2024-03-17T00:44:04;100086.72;;;11.72;73.32
81931;BME280;71395;43.488;1.472;2024-03-17T00:46:29;100116.06;;;11.83;73.19
81931;BME280;71395;43.488;1.472;2024-03-17T00:48:55;100107.41;;;11.76;72.92
81931;BME280;71395;43.488;1.472;2024-03-17T00:51:21;100094.50;;;11.73;73.29
81931;BME280;71395;43.488;1.472;2024-03-17T00:53:47;100098.84;;;11.74;72.81
81931;BME280;71395;43.488;1.472;2024-03-17T00:56:12;100099.91;;;11.78;73.93
81931;BME280;71395;43.488;1.472;2024-03-17T00:58:38;100063.31;;;11.57;73.38
81931;BME280;71395;43.488;1.472;2024-03-17T01:01:04;100078.09;;;11.64;73.72
81931;BME280;71395;43.488;1.472;2024-03-17T01:03:30;100090.72;;;11.64;73.53
81931;BME280;71395;43.488;1.472;2024-03-17T01:05:55;100052.47;;;11.36;72.70
81931;BME280;71395;43.488;1.472;2024-03-17T01:08:21;100088.53;;;11.56;73.46
81931;BME280;71395;43.488;1.472;2024-03-17T01:10:49;100099.84;;;11.63;73.81
81931;BME280;71395;43.488;1.472;2024-03-17T01:13:15;100063.78;;;11.44;72.86
81931;BME280;71395;43.488;1.472;2024-03-17T01:15:41;100082.63;;;11.54;73.58
81931;BME280;71395;43.488;1.472;2024-03-17T01:18:07;100085.84;;;11.56;73.08
81931;BME280;71395;43.488;1.472;2024-03-17T01:20:35;100068.13;;;11.55;73.16
81931;BME280;71395;43.488;1.472;2024-03-17T01:23:01;100046.84;;;11.43;73.83
81931;BME280;71395;43.488;1.472;2024-03-17T01:25:27;100055.19;;;11.47;73.44
81931;BME280;71395;43.488;1.472;2024-03-17T01:27:53;100058.66;;;11.37;73.77
81931;BME280;71395;43.488;1.472;2024-03-17T01:30:19;100079.06;;;11.43;74.10
81931;BME280;71395;43.488;1.472;2024-03-17T01:32:48;100061.59;;;11.35;73.63
81931;BME280;71395;43.488;1.472;2024-03-17T01:35:14;100079.59;;;11.40;73.57
81931;BME280;71395;43.488;1.472;2024-03-17T01:37:40;100064.84;;;11.43;73.05
81931;BME280;71395;43.488;1.472;2024-03-17T01:40:07;100032.81;;;11.21;73.64
81931;BME280;71395;43.488;1.472;2024-03-17T01:42:39;100065.66;;;11.43;74.11
81931;BME280;71395;43.488;1.472;2024-03-17T01:45:32;100042.00;;;11.30;73.14
81931;BME280;71395;43.488;1.472;2024-03-17T01:48:02;100053.28;;;11.37;73.93
81931;BME280;71395;43.488;1.472;2024-03-17T01:50:33;100054.63;;;11.34;73.39
81931;BME280;71395;43.488;1.472;2024-03-17T01:53:02;100051.91;;;11.29;73.77
81931;BME280;71395;43.488;1.472;2024-03-17T01:55:31;100059.69;;;11.31;73.89
81931;BME280;71395;43.488;1.472;2024-03-17T01:57:57;100067.78;;;11.36;73.21
81931;BME280;71395;43.488;1.472;2024-03-17T02:00:23;100048.44;;;11.29;74.15
81931;BME280;71395;43.488;1.472;2024-03-17T02:02:49;100054.88;;;11.38;73.38
81931;BME280;71395;43.488;1.472;2024-03-17T02:05:15;100054.63;;;11.34;73.39
81931;BME280;71395;43.488;1.472;2024-03-17T02:07:40;100020.69;;;11.13;72.94
81931;BME280;71395;43.488;1.472;2024-03-17T02:10:07;100057.81;;;11.31;73.47
81931;BME280;71395;43.488;1.472;2024-03-17T02:12:34;100047.06;;;11.26;73.99
81931;BME280;71395;43.488;1.472;2024-03-17T02:15:00;100048.66;;;11.22;74.08
81931;BME280;71395;43.488;1.472;2024-03-17T02:17:26;100034.66;;;11.15;74.20
81931;BME280;71395;43.488;1.472;2024-03-17T02:19:55;100037.34;;;11.15;73.15
81931;BME280;71395;43.488;1.472;2024-03-17T02:22:20;100025.22;;;11.07;74.41
81931;BME280;71395;43.488;1.472;2024-03-17T02:24:46;99993.78;;;10.98;73.46
81931;BME280;71395;43.488;1.472;2024-03-17T02:27:12;100032.53;;;11.17;73.20
81931;BME280;71395;43.488;1.472;2024-03-17T02:29:38;100014.81;;;11.16;73.75
81931;BME280;71395;43.488;1.472;2024-03-17T02:32:07;100019.38;;;11.16;73.88
81931;BME280;71395;43.488;1.472;2024-03-17T02:34:34;100007.00;;;11.09;73.42
81931;BME280;71395;43.488;1.472;2024-03-17T02:37:01;99997.09;;;11.15;74.41
81931;BME280;71395;43.488;1.472;2024-03-17T02:39:28;99991.44;;;11.11;74.29
81931;BME280;71395;43.488;1.472;2024-03-17T02:42:08;99976.16;;;11.12;73.45
81931;BME280;71395;43.488;1.472;2024-03-17T02:44:37;99978.28;;;11.10;73.79
81931;BME280;71395;43.488;1.472;2024-03-17T02:47:04;99976.69;;;11.09;74.47
81931;BME280;71395;43.488;1.472;2024-03-17T02:49:31;99989.59;;;11.17;73.85
81931;BME280;71395;43.488;1.472;2024-03-17T02:52:06;99994.94;;;11.17;73.34
81931;BME280;71395;43.488;1.472;2024-03-17T02:54:34;99991.47;;;11.17;73.67
81931;BME280;71395;43.488;1.472;2024-03-17T02:57:01;99972.09;;;11.04;74.01
81931;BME280;71395;43.488;1.472;2024-03-17T02:59:26;99989.28;;;11.13;74.40
81931;BME280;71395;43.488;1.472;2024-03-17T03:01:52;99965.38;;;11.02;74.60
81931;BME280;71395;43.488;1.472;2024-03-17T03:04:18;100005.44;;;11.24;74.51
81931;BME280;71395;43.488;1.472;2024-03-17T03:06:44;99981.50;;;11.12;74.44
81931;BME280;71395;43.488;1.472;2024-03-17T03:09:09;99983.41;;;11.17;74.21
81931;BME280;71395;43.488;1.472;2024-03-17T03:11:40;99988.53;;;11.23;75.03
81931;BME280;71395;43.488;1.472;2024-03-17T03:14:07;99987.50;;;11.29;74.50
81931;BME280;71395;43.488;1.472;2024-03-17T03:16:33;100003.34;;;11.36;75.01
81931;BME280;71395;43.488;1.472;2024-03-17T03:18:59;99995.31;;;11.41;74.44
81931;BME280;71395;43.488;1.472;2024-03-17T03:21:25;99989.44;;;11.44;74.26
81931;BME280;71395;43.488;1.472;2024-03-17T03:23:51;99994.25;;;11.47;74.05
81931;BME280;71395;43.488;1.472;2024-03-17T03:26:17;99997.50;;;11.49;74.32
81931;BME280;71395;43.488;1.472;2024-03-17T03:28:43;99977.31;;;11.36;74.74
81931;BME280;71395;43.488;1.472;2024-03-17T03:31:12;99987.81;;;11.48;74.75
81931;BME280;71395;43.488;1.472;2024-03-17T03:33:41;99964.44;;;11.38;74.12
81931;BME280;71395;43.488;1.472;2024-03-17T03:36:11;99989.19;;;11.51;74.72
81931;BME280;71395;43.488;1.472;2024-03-17T03:38:37;99999.41;;;11.59;74.25
81931;BME280;71395;43.488;1.472;2024-03-17T03:41:10;99968.22;;;11.48;74.68
81931;BME280;71395;43.488;1.472;2024-03-17T03:43:37;99977.38;;;11.52;74.34
81931;BME280;71395;43.488;1.472;2024-03-17T03:46:03;99989.50;;;11.64;75.14
81931;BME280;71395;43.488;1.472;2024-03-17T03:48:30;99991.91;;;11.66;75.12
81931;BME280;71395;43.488;1.472;2024-03-17T03:50:55;99973.09;;;11.56;74.91
81931;BME280;71395;43.488;1.472;2024-03-17T03:53:21;99983.84;;;11.61;74.65
81931;BME280;71395;43.488;1.472;2024-03-17T03:55:48;99997.81;;;11.73;75.14
81931;BME280;71395;43.488;1.472;2024-03-17T03:58:14;100001.06;;;11.75;75.26
81931;BME280;71395;43.488;1.472;2024-03-17T04:00:40;99980.88;;;11.62;74.30
81931;BME280;71395;43.488;1.472;2024-03-17T04:03:06;99967.22;;;11.64;75.38
81931;BME280;71395;43.488;1.472;2024-03-17T04:05:32;99975.53;;;11.73;74.87
81931;BME280;71395;43.488;1.472;2024-03-17T04:08:00;99992.50;;;11.83;75.22
81931;BME280;71395;43.488;1.472;2024-03-17T04:10:26;99966.13;;;11.70;74.79
81931;BME280;71395;43.488;1.472;2024-03-17T04:12:52;99989.28;;;11.86;75.03
81931;BME280;71395;43.488;1.472;2024-03-17T04:15:18;99968.28;;;11.78;75.55
81931;BME280;71395;43.488;1.472;2024-03-17T04:17:44;99969.41;;;11.82;75.16
81931;BME280;71395;43.488;1.472;2024-03-17T04:20:10;99961.31;;;11.77;74.90
81931;BME280;71395;43.488;1.472;2024-03-17T04:22:39;99980.97;;;11.93;74.89
81931;BME280;71395;43.488;1.472;2024-03-17T04:25:06;99979.09;;;11.88;75.08
81931;BME280;71395;43.488;1.472;2024-03-17T04:27:32;99983.41;;;12.00;74.66
81931;BME280;71395;43.488;1.472;2024-03-17T04:29:59;99983.94;;;12.02;75.03
81931;BME280;71395;43.488;1.472;2024-03-17T04:32:24;99978.56;;;11.97;74.70
81931;BME280;71395;43.488;1.472;2024-03-17T04:34:52;99976.44;;;11.99;74.56
81931;BME280;71395;43.488;1.472;2024-03-17T04:37:18;99993.09;;;12.06;75.11
81931;BME280;71395;43.488;1.472;2024-03-17T04:39:45;99991.19;;;12.06;74.67
81931;BME280;71395;43.488;1.472;2024-03-17T04:42:13;99986.63;;;12.07;74.27
81931;BME280;71395;43.488;1.472;2024-03-17T04:44:45;99981.25;;;12.07;74.85
81931;BME280;71395;43.488;1.472;2024-03-17T04:47:11;99981.25;;;12.07;74.55
81931;BME280;71395;43.488;1.472;2024-03-17T04:49:39;99981.25;;;12.07;74.69
81931;BME280;71395;43.488;1.472;2024-03-17T04:52:06;99978.56;;;11.97;74.28
81931;BME280;71395;43.488;1.472;2024-03-17T04:54:32;99987.97;;;11.94;74.14
81931;BME280;71395;43.488;1.472;2024-03-17T04:56:58;100007.03;;;12.03;73.78
81931;BME280;71395;43.488;1.472;2024-03-17T04:59:24;99985.81;;;11.86;74.74
81931;BME280;71395;43.488;1.472;2024-03-17T05:01:50;100010.28;;;12.00;73.94
81931;BME280;71395;43.488;1.472;2024-03-17T05:04:15;100005.97;;;11.88;74.17
81931;BME280;71395;43.488;1.472;2024-03-17T05:06:41;99989.50;;;11.75;74.35
81931;BME280;71395;43.488;1.472;2024-03-17T05:09:14;99991.41;;;11.74;74.12
81931;BME280;71395;43.488;1.472;2024-03-17T05:11:40;100037.13;;;11.95;73.72
81931;BME280;71395;43.488;1.472;2024-03-17T05:14:06;100026.91;;;11.86;74.50
81931;BME280;71395;43.488;1.472;2024-03-17T05:16:31;100027.16;;;11.85;74.51
81931;BME280;71395;43.488;1.472;2024-03-17T05:18:57;100039.81;;;11.89;74.22
81931;BME280;71395;43.488;1.472;2024-03-17T05:21:23;100036.50;;;11.77;73.87
81931;BME280;71395;43.488;1.472;2024-03-17T05:23:55;100041.34;;;11.70;73.96
81931;BME280;71395;43.488;1.472;2024-03-17T05:26:21;100033.25;;;11.65;73.44
81931;BME280;71395;43.488;1.472;2024-03-17T05:28:46;100045.63;;;11.71;73.67
81931;BME280;71395;43.488;1.472;2024-03-17T05:31:12;100020.03;;;11.53;73.99
81931;BME280;71395;43.488;1.472;2024-03-17T05:33:42;100051.78;;;11.67;74.11
81931;BME280;71395;43.488;1.472;2024-03-17T05:36:08;100035.91;;;11.55;73.69
81931;BME280;71395;43.488;1.472;2024-03-17T05:38:34;100043.97;;;11.55;73.34
81931;BME280;71395;43.488;1.472;2024-03-17T05:41:04;100050.41;;;11.49;73.52
81931;BME280;71395;43.488;1.472;2024-03-17T05:43:32;100034.75;;;11.35;74.08
81931;BME280;71395;43.488;1.472;2024-03-17T05:46:10;100057.63;;;11.48;73.70
81931;BME280;71395;43.488;1.472;2024-03-17T05:48:37;100063.78;;;11.44;74.07
81931;BME280;71395;43.488;1.472;2024-03-17T05:51:12;100071.56;;;11.40;73.40
81931;BME280;71395;43.488;1.472;2024-03-17T05:53:39;100056.44;;;11.24;73.42
81931;BME280;71395;43.488;1.472;2024-03-17T05:56:10;100070.94;;;11.28;73.04
81931;BME280;71395;43.488;1.472;2024-03-17T05:58:42;100078.75;;;11.29;74.15
81931;BME280;71395;43.488;1.472;2024-03-17T06:01:07;100077.06;;;11.18;73.36
81931;BME280;71395;43.488;1.472;2024-03-17T06:03:34;100071.63;;;11.08;73.55
81931;BME280;71395;43.488;1.472;2024-03-17T06:06:04;100064.38;;;11.08;73.45
81931;BME280;71395;43.488;1.472;2024-03-17T06:08:32;100087.81;;;11.23;74.39
81931;BME280;71395;43.488;1.472;2024-03-17T06:10:58;100072.28;;;11.25;74.51
81931;BME280;71395;43.488;1.472;2024-03-17T06:13:28;100071.47;;;11.25;73.65
81931;BME280;71395;43.488;1.472;2024-03-17T06:15:54;100071.44;;;11.20;74.05
81931;BME280;71395;43.488;1.472;2024-03-17T06:18:25;100073.06;;;11.21;73.49
81931;BME280;71395;43.488;1.472;2024-03-17T06:20:51;100075.72;;;11.16;74.49
81931;BME280;71395;43.488;1.472;2024-03-17T06:23:16;100087.84;;;11.28;73.52
81931;BME280;71395;43.488;1.472;2024-03-17T06:25:47;100085.19;;;11.33;73.82
81931;BME280;71395;43.488;1.472;2024-03-17T06:28:16;100057.25;;;11.24;74.47
81931;BME280;71395;43.488;1.472;2024-03-17T06:30:45;100083.94;;;11.46;73.83
81931;BME280;71395;43.488;1.472;2024-03-17T06:33:16;100074.28;;;11.50;74.57
81931;BME280;71395;43.488;1.472;2024-03-17T06:35:45;100035.06;;;11.39;73.87
81931;BME280;71395;43.488;1.472;2024-03-17T06:38:12;100078.38;;;11.73;73.93
81931;BME280;71395;43.488;1.472;2024-03-17T06:40:39;100080.09;;;11.84;73.52
81931;BME280;71395;43.488;1.472;2024-03-17T06:43:05;100083.34;;;11.97;73.96
81931;BME280;71395;43.488;1.472;2024-03-17T06:45:32;100078.00;;;12.07;73.72
81931;BME280;71395;43.488;1.472;2024-03-17T06:47:57;100056.50;;;12.12;73.49
81931;BME280;71395;43.488;1.472;2024-03-17T06:50:23;100051.41;;;12.15;72.93
81931;BME280;71395;43.488;1.472;2024-03-17T06:52:49;100026.13;;;12.16;72.87
81931;BME280;71395;43.488;1.472;2024-03-17T06:55:15;100042.03;;;12.38;72.76
81931;BME280;71395;43.488;1.472;2024-03-17T06:57:43;100040.41;;;12.42;72.24
81931;BME280;71395;43.488;1.472;2024-03-17T07:00:11;100058.41;;;12.62;71.99
81931;BME280;71395;43.488;1.472;2024-03-17T07:02:42;100052.22;;;12.62;72.06
81931;BME280;71395;43.488;1.472;2024-03-17T07:05:12;100044.44;;;12.65;71.59
81931;BME280;71395;43.488;1.472;2024-03-17T07:07:40;100039.84;;;12.66;71.59
81931;BME280;71395;43.488;1.472;2024-03-17T07:10:06;100065.94;;;12.86;71.84
81931;BME280;71395;43.488;1.472;2024-03-17T07:12:34;100053.56;;;12.80;71.59
81931;BME280;71395;43.488;1.472;2024-03-17T07:15:00;100065.13;;;12.90;71.44
81931;BME280;71395;43.488;1.472;2024-03-17T07:17:25;100034.47;;;12.66;71.68
81931;BME280;71395;43.488;1.472;2024-03-17T07:19:51;100068.91;;;12.89;71.85
81931;BME280;71395;43.488;1.472;2024-03-17T07:22:16;100054.09;;;12.77;71.99
81931;BME280;71395;43.488;1.472;2024-03-17T07:24:43;100079.38;;;12.96;71.92
81931;BME280;71395;43.488;1.472;2024-03-17T07:27:10;100083.66;;;13.02;71.45
81931;BME280;71395;43.488;1.472;2024-03-17T07:29:39;100082.06;;;13.06;71.31
81931;BME280;71395;43.488;1.472;2024-03-17T07:32:05;100088.22;;;13.17;71.44
81931;BME280;71395;43.488;1.472;2024-03-17T07:34:31;100091.47;;;13.24;71.51
81931;BME280;71395;43.488;1.472;2024-03-17T07:36:58;100073.13;;;13.21;71.39
81931;BME280;71395;43.488;1.472;2024-03-17T07:39:28;100088.47;;;13.36;70.86
81931;BME280;71395;43.488;1.472;2024-03-17T07:41:58;100080.38;;;13.41;70.53
81931;BME280;71395;43.488;1.472;2024-03-17T07:44:24;100058.84;;;13.41;70.41
81931;BME280;71395;43.488;1.472;2024-03-17T07:46:50;100069.34;;;13.48;70.78
81931;BME280;71395;43.488;1.472;2024-03-17T07:49:16;100067.16;;;13.50;70.24
81931;BME280;71395;43.488;1.472;2024-03-17T07:51:42;100084.63;;;13.67;70.51
81931;BME280;71395;43.488;1.472;2024-03-17T07:54:09;100092.94;;;13.71;70.41
81931;BME280;71395;43.488;1.472;2024-03-17T07:56:34;100087.00;;;13.74;69.12
81931;BME280;71395;43.488;1.472;2024-03-17T07:59:00;100092.91;;;13.76;68.96
81931;BME280;71395;43.488;1.472;2024-03-17T08:01:26;100085.38;;;13.78;69.40
81931;BME280;71395;43.488;1.472;2024-03-17T08:03:52;100079.97;;;13.78;68.68
81931;BME280;71395;43.488;1.472;2024-03-17T08:06:21;100104.66;;;14.01;68.36
81931;BME280;71395;43.488;1.472;2024-03-17T08:08:47;100114.56;;;14.10;68.44
81931;BME280;71395;43.488;1.472;2024-03-17T08:11:13;100120.72;;;14.21;68.08
81931;BME280;71395;43.488;1.472;2024-03-17T08:13:39;100093.25;;;14.14;68.82
81931;BME280;71395;43.488;1.472;2024-03-17T08:16:07;100112.84;;;14.30;68.52
81931;BME280;71395;43.488;1.472;2024-03-17T08:18:36;100113.13;;;14.28;67.67
81931;BME280;71395;43.488;1.472;2024-03-17T08:21:03;100093.19;;;14.24;67.47
81931;BME280;71395;43.488;1.472;2024-03-17T08:23:32;100125.94;;;14.52;67.07
81931;BME280;71395;43.488;1.472;2024-03-17T08:26:01;100133.72;;;14.58;66.83
81931;BME280;71395;43.488;1.472;2024-03-17T08:28:28;100128.28;;;14.63;66.62
81931;BME280;71395;43.488;1.472;2024-03-17T08:30:55;100117.75;;;14.62;66.88
81931;BME280;71395;43.488;1.472;2024-03-17T08:33:21;100112.63;;;14.65;67.09
81931;BME280;71395;43.488;1.472;2024-03-17T08:35:59;100126.25;;;14.84;67.00
81931;BME280;71395;43.488;1.472;2024-03-17T08:38:27;100117.81;;;14.91;66.86
81931;BME280;71395;43.488;1.472;2024-03-17T08:40:56;100135.28;;;14.98;66.60
81931;BME280;71395;43.488;1.472;2024-03-17T08:43:23;100117.50;;;14.97;66.04
81931;BME280;71395;43.488;1.472;2024-03-17T08:45:59;100128.19;;;15.08;65.30
81931;BME280;71395;43.488;1.472;2024-03-17T08:48:27;100142.13;;;15.20;65.99
81931;BME280;71395;43.488;1.472;2024-03-17T08:50:54;100094.81;;;14.98;65.57
81931;BME280;71395;43.488;1.472;2024-03-17T08:53:21;100132.81;;;15.31;66.10
81931;BME280;71395;43.488;1.472;2024-03-17T08:55:47;100113.97;;;15.26;65.36
81931;BME280;71395;43.488;1.472;2024-03-17T08:58:13;100124.91;;;15.40;64.88
81931;BME280;71395;43.488;1.472;2024-03-17T09:00:38;100126.75;;;15.44;65.15
81931;BME280;71395;43.488;1.472;2024-03-17T09:03:06;100131.53;;;15.52;64.95
81931;BME280;71395;43.488;1.472;2024-03-17T09:05:35;100118.81;;;15.53;63.91
81931;BME280;71395;43.488;1.472;2024-03-17T09:08:00;100121.47;;;15.58;64.94
81931;BME280;71395;43.488;1.472;2024-03-17T09:10:26;100131.88;;;15.70;64.15
81931;BME280;71395;43.488;1.472;2024-03-17T09:12:52;100105.53;;;15.57;63.80
81931;BME280;71395;43.488;1.472;2024-03-17T09:15:17;100107.09;;;15.63;63.41
81931;BME280;71395;43.488;1.472;2024-03-17T09:17:43;100131.25;;;15.78;63.80
81931;BME280;71395;43.488;1.472;2024-03-17T09:20:11;100126.28;;;15.85;63.49
81931;BME280;71395;43.488;1.472;2024-03-17T09:22:38;100113.31;;;15.87;63.71
81931;BME280;71395;43.488;1.472;2024-03-17T09:25:10;100103.88;;;15.85;64.02
81931;BME280;71395;43.488;1.472;2024-03-17T09:27:36;100102.44;;;15.92;62.94
81931;BME280;71395;43.488;1.472;2024-03-17T09:30:06;100122.81;;;16.03;64.02
81931;BME280;71395;43.488;1.472;2024-03-17T09:32:35;100085.69;;;15.90;63.53
81931;BME280;71395;43.488;1.472;2024-03-17T09:35:01;100099.53;;;16.08;63.01
81931;BME280;71395;43.488;1.472;2024-03-17T09:37:28;100105.28;;;16.20;62.74
81931;BME280;71395;43.488;1.472;2024-03-17T09:39:56;100094.75;;;16.18;62.66
81931;BME280;71395;43.488;1.472;2024-03-17T09:42:23;100105.66;;;16.32;63.29
81931;BME280;71395;43.488;1.472;2024-03-17T09:44:50;100102.34;;;16.35;62.36
81931;BME280;71395;43.488;1.472;2024-03-17T09:47:20;100104.97;;;16.40;62.00
81931;BME280;71395;43.488;1.472;2024-03-17T09:49:51;100100.03;;;16.47;63.15
81931;BME280;71395;43.488;1.472;2024-03-17T09:52:25;100073.91;;;16.38;62.76
81931;BME280;71395;43.488;1.472;2024-03-17T09:55:09;100101.22;;;16.55;61.70
81931;BME280;71395;43.488;1.472;2024-03-17T09:57:36;100112.50;;;16.62;62.52
81931;BME280;71395;43.488;1.472;2024-03-17T10:00:10;100114.69;;;16.60;62.51
81931;BME280;71395;43.488;1.472;2024-03-17T10:02:46;100111.03;;;16.70;62.53
81931;BME280;71395;43.488;1.472;2024-03-17T10:05:22;100124.16;;;16.82;62.09
81931;BME280;71395;43.488;1.472;2024-03-17T10:07:49;100122.94;;;16.88;61.81
81931;BME280;71395;43.488;1.472;2024-03-17T10:10:15;100129.09;;;16.93;62.80
81931;BME280;71395;43.488;1.472;2024-03-17T10:12:49;100130.91;;;16.98;62.13
81931;BME280;71395;43.488;1.472;2024-03-17T10:15:19;100103.41;;;16.91;61.99
81931;BME280;71395;43.488;1.472;2024-03-17T10:17:45;100106.41;;;16.89;61.66
81931;BME280;71395;43.488;1.472;2024-03-17T10:20:18;100124.91;;;17.15;61.72
81931;BME280;71395;43.488;1.472;2024-03-17T10:22:59;100124.53;;;17.21;62.14
81931;BME280;71395;43.488;1.472;2024-03-17T10:25:29;100122.81;;;17.25;62.22
81931;BME280;71395;43.488;1.472;2024-03-17T10:27:56;100109.88;;;17.22;61.98
81931;BME280;71395;43.488;1.472;2024-03-17T10:30:23;100090.81;;;17.14;61.32
81931;BME280;71395;43.488;1.472;2024-03-17T10:32:58;100119.94;;;17.36;61.51
81931;BME280;71395;43.488;1.472;2024-03-17T10:37:57;100119.03;;;17.40;61.80
81931;BME280;71395;43.488;1.472;2024-03-17T10:40:24;100117.63;;;17.43;61.31
81931;BME280;71395;43.488;1.472;2024-03-17T10:42:50;100087.81;;;17.29;61.18
81931;BME280;71395;43.488;1.472;2024-03-17T10:45:16;100082.28;;;17.34;60.96
81931;BME280;71395;43.488;1.472;2024-03-17T10:47:52;100107.69;;;17.52;61.13
81931;BME280;71395;43.488;1.472;2024-03-17T10:50:22;100115.72;;;17.57;61.62
81931;BME280;71395;43.488;1.472;2024-03-17T10:52:52;100123.88;;;17.57;61.20
81931;BME280;71395;43.488;1.472;2024-03-17T10:55:25;100118.75;;;17.55;60.78
81931;BME280;71395;43.488;1.472;2024-03-17T10:57:52;100141.03;;;17.66;61.35
81931;BME280;71395;43.488;1.472;2024-03-17T11:00:20;100126.16;;;17.64;60.98
81931;BME280;71395;43.488;1.472;2024-03-17T11:02:51;100139.03;;;17.72;61.10
81931;BME280;71395;43.488;1.472;2024-03-17T11:05:21;100137.34;;;17.76;60.80
81931;BME280;71395;43.488;1.472;2024-03-17T11:07:47;100137.63;;;17.74;60.83
81931;BME280;71395;43.488;1.472;2024-03-17T11:10:20;100133.00;;;17.75;60.40
81931;BME280;71395;43.488;1.472;2024-03-17T11:12:51;100083.41;;;17.61;60.61
81931;BME280;71395;43.488;1.472;2024-03-17T11:17:49;100122.56;;;17.96;60.88
81931;BME280;71395;43.488;1.472;2024-03-17T11:20:27;100102.59;;;17.78;60.35
81931;BME280;71395;43.488;1.472;2024-03-17T11:22:58;100134.22;;;17.96;60.34
81931;BME280;71395;43.488;1.472;2024-03-17T11:28:06;100116.63;;;18.07;60.48
81931;BME280;71395;43.488;1.472;2024-03-17T11:30:42;100126.66;;;18.21;59.87
81931;BME280;71395;43.488;1.472;2024-03-17T11:38:57;100086.44;;;18.23;59.85
81931;BME280;71395;43.488;1.472;2024-03-17T11:41:41;100100.28;;;18.35;59.77
81931;BME280;71395;43.488;1.472;2024-03-17T11:44:23;100074.44;;;18.24;59.43
81931;BME280;71395;43.488;1.472;2024-03-17T11:46:56;100087.06;;;18.42;59.88
81931;BME280;71395;43.488;1.472;2024-03-17T11:49:25;100092.25;;;18.52;59.45
81931;BME280;71395;43.488;1.472;2024-03-17T11:51:52;100090.00;;;18.54;59.32
81931;BME280;71395;43.488;1.472;2024-03-17T11:54:20;100081.88;;;18.54;59.01
81931;BME280;71395;43.488;1.472;2024-03-17T11:56:48;100110.06;;;18.81;58.70
81931;BME280;71395;43.488;1.472;2024-03-17T11:59:15;100093.13;;;18.84;58.49
81931;BME280;71395;43.488;1.472;2024-03-17T12:01:44;100073.00;;;18.85;58.25
81931;BME280;71395;43.488;1.472;2024-03-17T12:04:12;100082.00;;;18.94;58.18
81931;BME280;71395;43.488;1.472;2024-03-17T12:06:38;100057.38;;;18.91;58.05
81931;BME280;71395;43.488;1.472;2024-03-17T12:09:23;100071.97;;;19.03;58.48
81931;BME280;71395;43.488;1.472;2024-03-17T12:11:59;100057.16;;;19.09;58.43
81931;BME280;71395;43.488;1.472;2024-03-17T12:14:25;100048.88;;;19.23;58.50
81931;BME280;71395;43.488;1.472;2024-03-17T12:16:53;100041.56;;;19.32;58.28
81931;BME280;71395;43.488;1.472;2024-03-17T12:19:19;100005.38;;;19.15;57.83
81931;BME280;71395;43.488;1.472;2024-03-17T12:21:48;100026.56;;;19.35;57.20
81931;BME280;71395;43.488;1.472;2024-03-17T12:24:20;100025.75;;;19.43;57.17
81931;BME280;71395;43.488;1.472;2024-03-17T12:26:47;100038.72;;;19.46;57.53
81931;BME280;71395;43.488;1.472;2024-03-17T12:29:29;100033.63;;;19.53;56.45
81931;BME280;71395;43.488;1.472;2024-03-17T12:31:57;100029.16;;;19.57;57.46
81931;BME280;71395;43.488;1.472;2024-03-17T12:34:27;100029.69;;;19.59;56.85
81931;BME280;71395;43.488;1.472;2024-03-17T12:36:55;100017.34;;;19.62;57.22
81931;BME280;71395;43.488;1.472;2024-03-17T12:49:45;99994.97;;;19.74;56.11
81931;BME280;71395;43.488;1.472;2024-03-17T12:55:33;99960.09;;;19.76;55.96
81931;BME280;71395;43.488;1.472;2024-03-17T12:58:16;99986.97;;;20.03;56.75
81931;BME280;71395;43.488;1.472;2024-03-17T13:01:05;99984.41;;;20.16;56.30
81931;BME280;71395;43.488;1.472;2024-03-17T13:03:33;99981.03;;;20.19;56.00
81931;BME280;71395;43.488;1.472;2024-03-17T13:06:00;99969.34;;;20.18;55.06
81931;BME280;71395;43.488;1.472;2024-03-17T13:08:28;99973.19;;;20.26;54.81
81931;BME280;71395;43.488;1.472;2024-03-17T13:10:53;99960.22;;;20.23;55.13
81931;BME280;71395;43.488;1.472;2024-03-17T13:13:19;99958.44;;;20.27;55.01
81931;BME280;71395;43.488;1.472;2024-03-17T13:15:45;99963.22;;;20.38;55.30
81931;BME280;71395;43.488;1.472;2024-03-17T13:18:18;99937.63;;;20.31;54.26
81931;BME280;71395;43.488;1.472;2024-03-17T13:20:44;99959.84;;;20.42;54.87
81931;BME280;71395;43.488;1.472;2024-03-17T13:23:11;99932.00;;;20.36;54.31